Date,TemperatureHighF,TemperatureAvgF,TemperatureLowF,DewpointHighF,DewpointAvgF,DewpointLowF,HumidityHigh,HumidityAvg,HumidityLow,PressureMaxIn,PressureMinIn,WindSpeedMaxMPH,WindSpeedAvgMPH,GustSpeedMaxMPH,PrecipitationSumIn
2013-8-1,77,72,68,69,66,63,96,82,63,30.08,29.87,11,1,15,0.51
2013-8-2,83,75,68,69,64,59,96,71,46,29.95,29.83,20,5,21,0.00
2013-8-3,79,73,69,67,64,59,89,72,59,29.95,29.87,15,4,15,0.05
2013-8-4,79,73,67,66,58,53,83,61,42,30.00,29.89,16,5,22,0.00
2013-8-5,77,70,62,55,51,45,76,53,38,30.09,30.00,17,4,17,0.00
2013-8-6,81,74,66,63,58,53,73,58,39,30.16,30.07,12,1,12,0.00
2013-8-7,80,74,71,69,65,62,88,74,60,30.18,30.10,15,1,15,0.00
2013-8-8,82,75,71,75,71,68,94,88,78,30.11,30.03,10,1,13,0.32
2013-8-9,86,79,74,76,74,72,96,86,70,30.06,29.83,16,2,18,0.03
2013-8-10,83,77,71,73,64,55,88,66,47,30.08,29.89,20,5,20,0.00
2013-8-11,80,73,66,67,58,50,78,59,45,30.16,30.06,13,2,15,0.00
2013-8-12,84,76,70,71,68,60,93,78,50,30.07,29.96,9,1,0,0.04
2013-8-13,79,74,68,72,69,66,94,84,69,29.97,29.74,14,1,15,0.66
2013-8-14,73,67,61,66,54,48,90,62,50,30.09,29.79,25,8,26,0.01
2013-8-15,77,69,61,56,52,46,73,56,38,30.18,30.09,14,3,14,0.00
2013-8-16,80,72,65,59,55,49,79,57,37,30.24,30.16,11,2,0,0.00
2013-8-17,82,74,66,66,57,54,75,57,41,30.31,30.24,10,2,0,0.00
2013-8-18,76,72,69,65,59,52,84,64,46,30.30,30.17,11,2,15,0.00
2013-8-19,78,72,67,67,62,58,85,72,55,30.17,30.07,14,4,17,0.00
2013-8-20,87,77,69,70,66,61,89,69,44,30.17,30.08,13,3,13,0.00
2013-8-21,90,80,73,71,66,61,80,62,39,30.21,30.08,10,2,12,0.00
2013-8-22,81,76,71,72,71,67,96,87,63,30.10,29.91,17,3,19,0.23
2013-8-23,80,75,70,72,62,52,92,64,39,30.14,29.91,13,3,17,0.00
2013-8-24,78,72,64,63,55,48,78,57,36,30.38,30.13,16,2,16,0.00
2013-8-25,82,73,65,61,58,52,83,60,37,30.43,30.27,16,3,17,0.00
2013-8-26,81,75,68,70,63,57,85,67,59,30.27,29.95,17,5,18,0.03
2013-8-27,86,77,72,70,69,68,89,78,59,29.95,29.85,17,4,18,0.02
2013-8-28,84,77,74,73,71,68,95,82,64,29.93,29.88,10,2,12,0.31
2013-8-29,79,74,70,71,68,66,95,84,71,30.06,29.92,13,3,18,0.01
2013-8-30,84,76,70,72,68,66,89,78,59,30.07,29.89,16,3,16,0.00
2013-8-31,86,79,73,75,72,70,90,81,68,29.91,29.82,19,3,21,0.00